Time;durP1;ratioP1;P1;durP2;ratioP2;P2;SDS_P1;SDS_P2;PMS_P1;PMS_P2;Temp;Humidity;BMP_temperature;BMP_pressure;BME280_temperature;BME280_humidity;BME280_pressure;Samples;Min_cycle;Max_cycle;Signal;HPM_P1;HPM_P2
2023/04/07 00:01:42;;;;;;;1999.90;999.90;;;9.20;99.90;;;;;;4994791;28;20408;-75
2023/04/07 00:04:07;;;;;;;1999.90;999.90;;;9.20;99.90;;;;;;4993114;28;20178;-75
2023/04/07 00:06:33;;;;;;;1999.90;999.90;;;9.30;99.90;;;;;;4992626;28;20412;-75
2023/04/07 00:08:59;;;;;;;1999.90;999.90;;;9.20;99.90;;;;;;4992581;28;20231;-74
2023/04/07 00:11:24;;;;;;;1999.90;999.90;;;9.10;99.90;;;;;;4992676;28;20176;-74
2023/04/07 00:13:50;;;;;;;1999.90;999.90;;;9.10;99.90;;;;;;4992045;28;20243;-74
2023/04/07 00:16:16;;;;;;;1999.90;999.90;;;9.10;99.90;;;;;;4992386;28;20179;-74
2023/04/07 00:18:42;;;;;;;1999.90;999.90;;;9.10;99.90;;;;;;4992495;28;20564;-74
2023/04/07 00:21:07;;;;;;;1999.90;999.90;;;9.30;99.90;;;;;;4994304;28;20501;-73
2023/04/07 00:23:33;;;;;;;1999.90;999.90;;;9.10;99.90;;;;;;4994791;28;20176;-73
2023/04/07 00:25:58;;;;;;;1999.90;999.90;;;9.00;99.90;;;;;;4994525;28;20211;-73
2023/04/07 00:28:24;;;;;;;1999.90;999.90;;;9.20;99.90;;;;;;4994593;28;20208;-73
2023/04/07 00:30:50;;;;;;;1999.90;999.90;;;9.10;99.90;;;;;;4993837;28;20179;-73
2023/04/07 00:33:15;;;;;;;1999.90;999.90;;;9.10;99.90;;;;;;4993253;28;20195;-72
2023/04/07 00:35:41;;;;;;;1999.90;999.90;;;9.10;99.90;;;;;;4994082;28;20546;-72
2023/04/07 00:38:06;;;;;;;1999.90;999.90;;;9.20;99.90;;;;;;4993289;28;20198;-73
2023/04/07 00:40:32;;;;;;;1999.90;999.90;;;9.10;99.90;;;;;;4993347;28;20528;-72
2023/04/07 00:42:57;;;;;;;1999.90;999.90;;;9.00;99.90;;;;;;4994061;28;20266;-72
2023/04/07 00:45:23;;;;;;;1999.90;999.90;;;9.10;99.90;;;;;;4993338;28;20610;-72
2023/04/07 00:47:49;;;;;;;1999.90;999.90;;;9.10;99.90;;;;;;4993330;28;20415;-73
2023/04/07 00:50:14;;;;;;;1999.90;999.90;;;9.10;99.90;;;;;;4993664;28;20173;-73
2023/04/07 00:52:40;;;;;;;1999.90;999.90;;;9.20;99.90;;;;;;4993333;28;20199;-73
2023/04/07 00:55:06;;;;;;;1999.90;999.90;;;9.10;99.90;;;;;;4992927;28;20185;-73
2023/04/07 00:57:32;;;;;;;1999.90;999.90;;;9.10;99.90;;;;;;4992925;28;20422;-73
2023/04/07 00:59:57;;;;;;;1999.90;999.90;;;9.10;99.90;;;;;;4993192;28;20426;-72
2023/04/07 01:02:32;;;;;;;1999.90;999.90;;;9.10;99.90;;;;;;4993062;28;20177;-73
2023/04/07 01:05:04;;;;;;;1999.90;999.90;;;9.00;99.90;;;;;;4992339;28;20222;-72
2023/04/07 01:07:49;;;;;;;1999.90;999.90;;;9.00;99.90;;;;;;4992563;28;21002;-72
2023/04/07 01:10:21;;;;;;;1999.90;999.90;;;9.00;99.90;;;;;;4993082;28;20498;-73
2023/04/07 01:13:07;;;;;;;1999.90;999.90;;;9.00;99.90;;;;;;4992878;28;20961;-73
2023/04/07 01:15:35;;;;;;;1999.90;999.90;;;8.90;99.90;;;;;;4992860;28;20404;-73
2023/04/07 01:18:16;;;;;;;1999.90;999.90;;;9.00;99.90;;;;;;4995667;28;20428;-73
2023/04/07 01:20:44;;;;;;;1999.90;999.90;;;9.00;99.90;;;;;;4996358;28;20410;-72
2023/04/07 01:23:16;;;;;;;1999.90;999.90;;;9.00;99.90;;;;;;4995891;28;20844;-73
2023/04/07 01:26:18;;;;;;;1999.90;999.90;;;9.00;99.90;;;;;;4996188;28;20418;-73
2023/04/07 01:29:02;;;;;;;1999.90;999.90;;;9.00;99.90;;;;;;4999201;28;20428;-73
2023/04/07 01:31:28;;;;;;;1999.90;999.90;;;9.00;99.90;;;;;;4999832;28;20449;-73
2023/04/07 01:33:55;;;;;;;1999.90;999.90;;;8.90;99.90;;;;;;4998788;28;20515;-73
2023/04/07 01:36:22;;;;;;;1999.90;999.90;;;9.00;99.90;;;;;;4999618;28;20852;-73
2023/04/07 01:38:49;;;;;;;1999.90;999.90;;;9.20;99.90;;;;;;4999601;28;20426;-73
2023/04/07 01:41:17;;;;;;;1999.90;999.90;;;9.00;99.90;;;;;;4999685;28;20407;-73
2023/04/07 01:43:44;;;;;;;1999.90;999.90;;;9.00;99.90;;;;;;4997336;28;20436;-73
2023/04/07 01:46:10;;;;;;;1999.90;999.90;;;9.00;99.90;;;;;;4998820;28;20420;-73
2023/04/07 01:48:36;;;;;;;1999.90;999.90;;;8.90;99.90;;;;;;4998450;28;20837;-73
2023/04/07 01:51:04;;;;;;;1999.90;999.90;;;9.00;99.90;;;;;;4996522;28;20256;-73
2023/04/07 01:53:30;;;;;;;1999.90;999.90;;;9.00;99.90;;;;;;4995756;28;20463;-73
2023/04/07 01:55:55;;;;;;;1999.90;999.90;;;8.80;99.90;;;;;;4996015;28;20490;-73
2023/04/07 01:58:21;;;;;;;1999.90;999.90;;;8.90;99.90;;;;;;4996180;28;20423;-73
2023/04/07 02:00:47;;;;;;;1999.90;999.90;;;8.90;99.90;;;;;;4996859;28;20212;-74
2023/04/07 02:03:19;;;;;;;1999.90;999.90;;;8.80;99.90;;;;;;4995494;28;20208;-73
2023/04/07 02:05:48;;;;;;;1999.90;999.90;;;8.80;99.90;;;;;;4979457;28;20423;-73
2023/04/07 02:08:16;;;;;;;1999.90;999.90;;;8.80;99.90;;;;;;4994829;28;20436;-73
2023/04/07 02:10:45;;;;;;;1999.90;999.90;;;9.00;99.90;;;;;;4995920;28;20412;-73
2023/04/07 02:13:14;;;;;;;1999.90;999.90;;;8.90;99.90;;;;;;4995446;28;20456;-73
2023/04/07 02:15:44;;;;;;;1999.90;999.90;;;8.80;99.90;;;;;;4997435;28;20430;-73
2023/04/07 02:18:11;;;;;;;1999.90;999.90;;;8.90;99.90;;;;;;4999128;28;20426;-73
2023/04/07 02:20:38;;;;;;;1999.90;999.90;;;8.90;99.90;;;;;;4997905;28;20412;-73
2023/04/07 02:23:07;;;;;;;1999.90;999.90;;;8.90;99.90;;;;;;4997413;28;20417;-74
2023/04/07 02:25:33;;;;;;;1999.90;999.90;;;8.90;99.90;;;;;;4997426;28;20444;-74
2023/04/07 02:27:59;;;;;;;1999.90;999.90;;;8.90;99.90;;;;;;4996812;28;20482;-74
2023/04/07 02:30:25;;;;;;;1999.90;999.90;;;9.00;99.90;;;;;;4996538;28;20258;-73
2023/04/07 02:32:51;;;;;;;1999.90;999.90;;;9.00;99.90;;;;;;4995357;28;20588;-73
2023/04/07 02:35:17;;;;;;;1999.90;999.90;;;9.10;99.90;;;;;;4995024;28;20982;-73
2023/04/07 02:37:44;;;;;;;1999.90;999.90;;;9.00;99.90;;;;;;4994317;28;20530;-73
2023/04/07 02:40:10;;;;;;;1999.90;999.90;;;9.10;99.90;;;;;;4998680;28;20464;-73
2023/04/07 02:42:35;;;;;;;1999.90;999.90;;;9.00;99.90;;;;;;4998461;28;20447;-73
2023/04/07 02:45:02;;;;;;;1999.90;999.90;;;9.00;99.90;;;;;;4996854;28;20432;-73
2023/04/07 02:47:28;;;;;;;1999.90;999.90;;;9.10;99.90;;;;;;4997701;28;20698;-73
2023/04/07 02:49:53;;;;;;;1999.90;999.90;;;9.20;99.90;;;;;;4997879;28;20424;-73
2023/04/07 02:52:19;;;;;;;1999.90;999.90;;;9.00;99.90;;;;;;4998144;28;20173;-73
2023/04/07 02:54:45;;;;;;;1999.90;999.90;;;9.00;99.90;;;;;;4996364;28;20643;-73
2023/04/07 02:57:10;;;;;;;1999.90;999.90;;;9.00;99.90;;;;;;4995065;28;20180;-73
2023/04/07 02:59:36;;;;;;;1999.90;999.90;;;8.90;99.90;;;;;;4996002;28;20408;-74
2023/04/07 03:02:01;;;;;;;1999.90;999.90;;;8.90;99.90;;;;;;4994796;28;20184;-74
2023/04/07 03:04:27;;;;;;;1999.90;999.90;;;8.90;99.90;;;;;;4994013;28;20172;-73
2023/04/07 03:06:53;;;;;;;1999.90;999.90;;;8.90;99.90;;;;;;4994093;28;20177;-73
2023/04/07 03:09:18;;;;;;;1999.90;999.90;;;8.70;99.90;;;;;;4994625;28;20266;-73
2023/04/07 03:11:44;;;;;;;1999.90;999.90;;;8.80;99.90;;;;;;4994558;28;20163;-73
2023/04/07 03:14:09;;;;;;;1999.90;999.90;;;8.90;99.90;;;;;;4993433;28;20664;-73
2023/04/07 03:16:35;;;;;;;1999.90;999.90;;;8.80;99.90;;;;;;4993865;28;20196;-74
2023/04/07 03:19:01;;;;;;;1999.90;999.90;;;8.80;99.90;;;;;;4993667;28;20242;-73
2023/04/07 03:21:27;;;;;;;1999.90;999.90;;;8.80;99.90;;;;;;4994176;28;20211;-73
2023/04/07 03:23:53;;;;;;;1999.90;999.90;;;8.70;99.90;;;;;;4994400;28;20184;-73
2023/04/07 03:26:19;;;;;;;1999.90;999.90;;;8.70;99.90;;;;;;4994274;28;21001;-74
2023/04/07 03:28:44;;;;;;;1999.90;999.90;;;8.80;99.90;;;;;;4993860;28;20898;-74
2023/04/07 03:31:10;;;;;;;1999.90;999.90;;;8.70;99.90;;;;;;4993581;28;20208;-73
2023/04/07 03:33:36;;;;;;;1999.90;999.90;;;8.70;99.90;;;;;;4993309;28;20196;-74
2023/04/07 03:36:01;;;;;;;1999.90;999.90;;;9.00;99.90;;;;;;4993536;28;20173;-73
2023/04/07 03:38:27;;;;;;;1999.90;999.90;;;8.70;99.90;;;;;;4993900;28;20566;-74
2023/04/07 03:40:53;;;;;;;1999.90;999.90;;;8.70;99.90;;;;;;4993198;28;20570;-73
2023/04/07 03:43:18;;;;;;;1999.90;999.90;;;8.70;99.90;;;;;;4993557;28;20408;-74
2023/04/07 03:45:45;;;;;;;1999.90;999.90;;;8.70;99.90;;;;;;4992996;28;20631;-74
2023/04/07 03:48:11;;;;;;;1999.90;999.90;;;8.90;99.90;;;;;;4992929;28;20211;-74
2023/04/07 03:50:38;;;;;;;1999.90;999.90;;;8.70;99.90;;;;;;4993400;28;20483;-73
2023/04/07 03:53:04;;;;;;;1999.90;999.90;;;8.60;99.90;;;;;;4992704;28;20460;-73
2023/04/07 03:55:30;;;;;;;1999.90;999.90;;;8.60;99.90;;;;;;4992812;28;20411;-73
2023/04/07 03:57:56;;;;;;;1999.90;999.90;;;8.50;99.90;;;;;;4992871;28;20205;-73
2023/04/07 04:00:22;;;;;;;1999.90;999.90;;;8.70;99.90;;;;;;4992884;28;20916;-73
2023/04/07 04:02:47;;;;;;;1999.90;999.90;;;8.70;99.90;;;;;;4992842;28;20556;-73
2023/04/07 04:05:13;;;;;;;1999.90;999.90;;;8.60;99.90;;;;;;4992595;28;20212;-73
2023/04/07 04:07:39;;;;;;;1999.90;999.90;;;8.60;99.90;;;;;;4992531;28;20202;-73
2023/04/07 04:10:05;;;;;;;1999.90;999.90;;;8.60;99.90;;;;;;4992789;28;20307;-73
2023/04/07 04:12:31;;;;;;;1999.90;999.90;;;8.60;99.90;;;;;;4992643;28;20184;-73
2023/04/07 04:14:56;;;;;;;1999.90;999.90;;;8.50;99.90;;;;;;4992430;28;20408;-73
2023/04/07 04:17:22;;;;;;;1999.90;999.90;;;8.90;99.90;;;;;;4992538;28;20681;-73
2023/04/07 04:19:47;;;;;;;1999.90;999.90;;;8.60;99.90;;;;;;4992678;28;20820;-73
2023/04/07 04:22:13;;;;;;;1999.90;999.90;;;8.60;99.90;;;;;;4992636;28;20167;-73
2023/04/07 04:24:40;;;;;;;1999.90;999.90;;;8.80;99.90;;;;;;4992238;28;20624;-73
2023/04/07 04:27:06;;;;;;;1999.90;999.90;;;8.50;99.90;;;;;;4992365;28;20175;-73
2023/04/07 04:29:32;;;;;;;1999.90;999.90;;;8.50;99.90;;;;;;4992353;28;20414;-73
2023/04/07 04:31:58;;;;;;;1999.90;999.90;;;8.50;99.90;;;;;;4992555;28;20226;-74
2023/04/07 04:34:23;;;;;;;1999.90;999.90;;;8.40;99.90;;;;;;4992131;28;20949;-74
2023/04/07 04:36:49;;;;;;;1999.90;999.90;;;8.40;99.90;;;;;;4992219;28;20635;-73
2023/04/07 04:39:15;;;;;;;1999.90;999.90;;;8.50;99.90;;;;;;4992414;28;20185;-73
2023/04/07 04:41:41;;;;;;;1999.90;999.90;;;8.40;99.90;;;;;;4992328;28;20230;-74
2023/04/07 04:44:06;;;;;;;1999.90;999.90;;;8.50;99.90;;;;;;4992075;28;21156;-74
2023/04/07 04:46:32;;;;;;;1999.90;999.90;;;8.40;99.90;;;;;;4992113;28;20184;-74
2023/04/07 04:48:57;;;;;;;1999.90;999.90;;;8.40;99.90;;;;;;4992413;28;20200;-74
2023/04/07 04:51:23;;;;;;;1999.90;999.90;;;8.40;99.90;;;;;;4993258;28;20197;-74
2023/04/07 04:53:49;;;;;;;1999.90;999.90;;;8.30;99.90;;;;;;4995875;28;20671;-74
2023/04/07 04:56:15;;;;;;;1999.90;999.90;;;8.30;99.90;;;;;;4995984;28;20640;-73
2023/04/07 04:58:44;;;;;;;1999.90;999.90;;;8.30;99.90;;;;;;4996054;28;20203;-73
2023/04/07 05:01:13;;;;;;;1999.90;999.90;;;8.30;99.90;;;;;;4996205;28;20419;-73
2023/04/07 05:03:39;;;;;;;1999.90;999.90;;;8.30;99.90;;;;;;4995720;28;20893;-74
2023/04/07 05:06:05;;;;;;;1999.90;999.90;;;8.30;99.90;;;;;;4995819;28;20413;-74
2023/04/07 05:08:31;;;;;;;1999.90;999.90;;;8.30;99.90;;;;;;4995900;28;20675;-74
2023/04/07 05:10:56;;;;;;;1999.90;999.90;;;8.30;99.90;;;;;;4995846;28;20415;-74
2023/04/07 05:13:22;;;;;;;1999.90;999.90;;;8.30;99.90;;;;;;4995309;28;20240;-74
2023/04/07 05:15:48;;;;;;;1999.90;999.90;;;8.40;99.90;;;;;;4995813;28;20549;-74
2023/04/07 05:18:13;;;;;;;1999.90;999.90;;;8.40;99.90;;;;;;4995529;28;20188;-74
2023/04/07 05:20:39;;;;;;;1999.90;999.90;;;8.40;99.90;;;;;;4995680;28;20452;-73
2023/04/07 05:23:05;;;;;;;1999.90;999.90;;;8.40;99.90;;;;;;4995514;28;20176;-73
2023/04/07 05:25:31;;;;;;;1999.90;999.90;;;8.40;99.90;;;;;;4995538;28;20651;-73
2023/04/07 05:27:58;;;;;;;1999.90;999.90;;;8.50;99.90;;;;;;4995343;28;20229;-73
2023/04/07 05:30:23;;;;;;;1999.90;999.90;;;8.40;99.90;;;;;;4995515;28;20423;-73
2023/04/07 05:32:49;;;;;;;1999.90;999.90;;;8.40;99.90;;;;;;4995425;28;20459;-73
2023/04/07 05:35:15;;;;;;;1999.90;999.90;;;8.40;99.90;;;;;;4995010;28;20169;-73
2023/04/07 05:37:41;;;;;;;1999.90;999.90;;;8.50;99.90;;;;;;4995137;28;20458;-73
2023/04/07 05:40:07;;;;;;;1999.90;999.90;;;8.40;99.90;;;;;;4995295;28;20173;-73
2023/04/07 05:42:32;;;;;;;1999.90;999.90;;;8.40;99.90;;;;;;4995305;28;20171;-73
2023/04/07 05:44:58;;;;;;;1999.90;999.90;;;8.40;99.90;;;;;;4994921;28;20523;-73
2023/04/07 05:47:23;;;;;;;1999.90;999.90;;;8.20;99.90;;;;;;4994932;28;20181;-73
2023/04/07 05:49:49;;;;;;;1999.90;999.90;;;8.30;99.90;;;;;;4995154;28;20581;-73
2023/04/07 05:52:14;;;;;;;1999.90;999.90;;;8.40;99.90;;;;;;4995123;28;20168;-74
2023/04/07 05:54:40;;;;;;;1999.90;999.90;;;8.50;99.90;;;;;;4994567;28;20630;-73
2023/04/07 05:57:06;;;;;;;1999.90;999.90;;;8.40;99.90;;;;;;4994744;28;20168;-73
2023/04/07 05:59:36;;;;;;;1999.90;999.90;;;8.40;99.90;;;;;;4995134;28;20256;-73
2023/04/07 06:02:02;;;;;;;1999.90;999.90;;;8.20;99.90;;;;;;4994688;28;20466;-73
2023/04/07 06:04:28;;;;;;;1999.90;999.90;;;8.20;99.90;;;;;;4994450;28;20466;-73
2023/04/07 06:06:54;;;;;;;1999.90;999.90;;;8.20;99.90;;;;;;4994610;28;21002;-73
2023/04/07 06:09:22;;;;;;;1999.90;999.90;;;8.10;99.90;;;;;;4994690;28;20665;-73
2023/04/07 06:11:48;;;;;;;1999.90;999.90;;;8.10;99.90;;;;;;4994809;28;20172;-73
2023/04/07 06:14:13;;;;;;;1999.90;999.90;;;8.10;99.90;;;;;;4994246;28;20817;-73
2023/04/07 06:16:39;;;;;;;1999.90;999.90;;;8.10;99.90;;;;;;4994437;28;20656;-73
2023/04/07 06:19:06;;;;;;;1999.90;999.90;;;8.10;99.90;;;;;;4994612;28;20255;-73
2023/04/07 06:21:32;;;;;;;1999.90;999.90;;;8.10;99.90;;;;;;4994776;28;20256;-73
2023/04/07 06:23:58;;;;;;;1999.90;999.90;;;8.10;99.90;;;;;;4994145;28;20490;-73
2023/04/07 06:26:26;;;;;;;1999.90;999.90;;;8.10;99.90;;;;;;4994286;28;20852;-73
2023/04/07 06:28:51;;;;;;;1999.90;999.90;;;8.20;99.90;;;;;;4994429;28;20803;-73
2023/04/07 06:31:17;;;;;;;1999.90;999.90;;;8.10;99.90;;;;;;4994452;28;20412;-73
2023/04/07 06:33:43;;;;;;;1999.90;999.90;;;8.30;99.90;;;;;;4993845;28;20449;-73
2023/04/07 06:36:10;;;;;;;1999.90;999.90;;;9.10;99.90;;;;;;4994166;28;20194;-73
2023/04/07 06:38:35;;;;;;;1999.90;999.90;;;8.30;99.90;;;;;;4994165;28;20428;-73
2023/04/07 06:41:01;;;;;;;1999.90;999.90;;;8.30;99.90;;;;;;4994271;28;20406;-73
2023/04/07 06:43:27;;;;;;;1999.90;999.90;;;8.20;99.90;;;;;;4993882;28;20167;-73
2023/04/07 06:45:52;;;;;;;1999.90;999.90;;;8.40;99.90;;;;;;4993954;28;20632;-73
2023/04/07 06:48:18;;;;;;;1999.90;999.90;;;8.50;99.90;;;;;;4993938;28;20697;-73
2023/04/07 06:50:48;;;;;;;1999.90;999.90;;;8.40;99.90;;;;;;4994045;28;20188;-73
2023/04/07 06:53:14;;;;;;;1999.90;999.90;;;8.60;99.90;;;;;;4993401;28;20205;-73
2023/04/07 06:55:40;;;;;;;1999.90;999.90;;;8.40;99.90;;;;;;4993942;28;20903;-73
2023/04/07 06:58:05;;;;;;;1999.90;999.90;;;8.40;99.90;;;;;;4993750;28;20187;-73
2023/04/07 07:00:31;;;;;;;1999.90;999.90;;;8.50;99.90;;;;;;4993832;28;20886;-73
2023/04/07 07:02:57;;;;;;;1999.90;999.90;;;8.50;99.90;;;;;;4993747;28;20179;-74
2023/04/07 07:05:22;;;;;;;1999.90;999.90;;;8.60;99.90;;;;;;4993442;28;20177;-74
2023/04/07 07:07:49;;;;;;;1999.90;999.90;;;8.50;99.90;;;;;;4993534;28;20194;-74
2023/04/07 07:10:15;;;;;;;1999.90;999.90;;;8.50;99.90;;;;;;4993639;28;20168;-74
2023/04/07 07:12:40;;;;;;;1999.90;999.90;;;8.50;99.90;;;;;;4993511;28;20424;-74
2023/04/07 07:15:06;;;;;;;1999.90;999.90;;;8.50;99.90;;;;;;4992698;28;20408;-74
2023/04/07 07:17:32;;;;;;;1999.90;999.90;;;8.60;99.90;;;;;;4993312;28;20219;-73
2023/04/07 07:19:58;;;;;;;1999.90;999.90;;;8.60;99.90;;;;;;4993508;28;20414;-73
2023/04/07 07:22:24;;;;;;;1999.90;999.90;;;8.60;99.90;;;;;;4993383;28;20501;-74
2023/04/07 07:24:50;;;;;;;1999.90;999.90;;;8.50;99.90;;;;;;4993065;28;20213;-73
2023/04/07 07:27:15;;;;;;;1999.90;999.90;;;8.60;99.90;;;;;;4993188;28;20445;-73
2023/04/07 07:29:41;;;;;;;1999.90;999.90;;;8.60;99.90;;;;;;4993319;28;20172;-73
2023/04/07 07:32:06;;;;;;;1999.90;999.90;;;8.70;99.90;;;;;;4993217;28;20674;-73
2023/04/07 07:34:32;;;;;;;1999.90;999.90;;;8.70;99.90;;;;;;4992868;28;20197;-73
2023/04/07 07:36:58;;;;;;;1999.90;999.90;;;8.60;99.90;;;;;;4993023;28;20175;-73
2023/04/07 07:39:24;;;;;;;1999.90;999.90;;;8.70;99.90;;;;;;4993126;28;20592;-73
2023/04/07 07:41:50;;;;;;;1999.90;999.90;;;8.70;99.90;;;;;;4993144;28;20435;-73
2023/04/07 07:44:16;;;;;;;1999.90;999.90;;;8.70;99.90;;;;;;4992717;28;20441;-74
2023/04/07 07:46:41;;;;;;;1999.90;999.90;;;8.80;99.90;;;;;;4992858;28;20218;-74
2023/04/07 07:49:07;;;;;;;1999.90;999.90;;;8.80;99.90;;;;;;4993020;28;20203;-73
2023/04/07 07:51:34;;;;;;;1999.90;999.90;;;8.80;99.90;;;;;;4992891;28;20183;-73
2023/04/07 07:53:59;;;;;;;1999.90;999.90;;;8.80;99.90;;;;;;4992284;28;20218;-73
2023/04/07 07:56:26;;;;;;;1999.90;999.90;;;8.80;99.90;;;;;;4992920;28;20421;-73
2023/04/07 07:58:51;;;;;;;1999.90;999.90;;;8.80;99.90;;;;;;4993235;28;20192;-73
2023/04/07 08:01:17;;;;;;;1999.90;999.90;;;8.80;99.90;;;;;;4992965;28;20421;-73
2023/04/07 08:03:42;;;;;;;1999.90;999.90;;;8.90;99.90;;;;;;4992373;28;20266;-74
2023/04/07 08:06:08;;;;;;;1999.90;999.90;;;8.90;99.90;;;;;;4992474;28;20180;-74
2023/04/07 08:08:34;;;;;;;1999.90;999.90;;;8.90;99.90;;;;;;4992613;28;20243;-73
2023/04/07 08:11:00;;;;;;;1999.90;999.90;;;9.10;99.90;;;;;;4992692;28;20177;-73
2023/04/07 08:13:26;;;;;;;1999.90;999.90;;;9.20;99.90;;;;;;4991943;28;21027;-74
2023/04/07 08:15:51;;;;;;;1999.90;999.90;;;9.30;99.90;;;;;;4997519;28;20171;-74
2023/04/07 08:18:17;;;;;;;1999.90;999.90;;;9.30;99.90;;;;;;5001679;28;20688;-73
2023/04/07 08:20:42;;;;;;;1999.90;999.90;;;9.30;99.90;;;;;;4999748;28;20254;-74
2023/04/07 08:23:08;;;;;;;1999.90;999.90;;;9.50;99.90;;;;;;4992253;28;20705;-74
2023/04/07 08:25:34;;;;;;;1999.90;999.90;;;9.40;99.90;;;;;;4993838;28;20183;-74
2023/04/07 08:28:00;;;;;;;1999.90;999.90;;;9.40;99.90;;;;;;4996508;28;20553;-74
2023/04/07 08:30:25;;;;;;;1999.90;999.90;;;9.40;99.90;;;;;;4996611;28;20419;-74
2023/04/07 08:32:51;;;;;;;1999.90;999.90;;;9.40;99.90;;;;;;4996456;28;20202;-74
2023/04/07 08:35:16;;;;;;;1999.90;999.90;;;9.40;99.90;;;;;;4995914;28;20183;-74
2023/04/07 08:37:43;;;;;;;1999.90;999.90;;;9.50;99.90;;;;;;4998179;28;20194;-75
2023/04/07 08:40:09;;;;;;;1999.90;999.90;;;9.60;99.90;;;;;;4998370;28;20208;-75
2023/04/07 08:42:39;;;;;;;1999.90;999.90;;;9.60;99.90;;;;;;4996831;28;20423;-75
2023/04/07 08:45:06;;;;;;;1999.90;999.90;;;9.50;99.90;;;;;;4996551;28;20446;-75
2023/04/07 08:47:33;;;;;;;1999.90;999.90;;;9.50;99.90;;;;;;4996437;28;20991;-75
2023/04/07 08:50:07;;;;;;;1999.90;999.90;;;9.50;99.90;;;;;;4996789;28;20422;-76
2023/04/07 08:52:47;;;;;;;1999.90;999.90;;;9.40;99.90;;;;;;4996688;28;20788;-75
2023/04/07 08:55:13;;;;;;;1999.90;999.90;;;9.40;99.90;;;;;;4996924;28;20941;-74
2023/04/07 08:57:41;;;;;;;1999.90;999.90;;;9.50;99.90;;;;;;4996451;28;20490;-75
2023/04/07 09:00:07;;;;;;;1999.90;999.90;;;9.20;99.90;;;;;;4995725;28;20418;-75
2023/04/07 09:02:44;;;;;;;1999.90;999.90;;;9.20;99.90;;;;;;4996564;28;20422;-75
2023/04/07 09:05:10;;;;;;;1999.90;999.90;;;9.20;99.90;;;;;;4996254;28;20906;-75
2023/04/07 09:07:39;;;;;;;1999.90;999.90;;;9.20;99.90;;;;;;4997967;28;20462;-75
2023/04/07 09:10:05;;;;;;;1999.90;999.90;;;9.30;99.90;;;;;;4999322;28;20938;-74
2023/04/07 09:12:33;;;;;;;1999.90;999.90;;;9.40;99.90;;;;;;4997265;28;20408;-74
2023/04/07 09:14:59;;;;;;;1999.90;999.90;;;9.50;99.90;;;;;;4996995;28;20473;-74
2023/04/07 09:17:26;;;;;;;1999.90;999.90;;;9.50;99.90;;;;;;4996246;28;20405;-74
2023/04/07 09:19:52;;;;;;;1999.90;999.90;;;9.70;99.90;;;;;;4996926;28;20935;-74
2023/04/07 09:22:38;;;;;;;1999.90;999.90;;;9.60;99.90;;;;;;4997440;28;20412;-74
2023/04/07 09:25:22;;;;;;;1999.90;999.90;;;9.70;99.90;;;;;;4996430;28;20415;-74
2023/04/07 09:28:02;;;;;;;1999.90;999.90;;;9.90;99.90;;;;;;4998025;28;20450;-74
2023/04/07 09:30:30;;;;;;;1999.90;999.90;;;10.60;99.90;;;;;;4998189;28;20404;-74
2023/04/07 09:32:56;;;;;;;1999.90;999.90;;;10.10;99.90;;;;;;4997398;28;20458;-74
2023/04/07 09:35:23;;;;;;;1999.90;999.90;;;10.20;99.90;;;;;;4996778;28;20404;-74
2023/04/07 09:38:05;;;;;;;1999.90;999.90;;;10.20;99.90;;;;;;4996187;28;20468;-74
2023/04/07 09:40:31;;;;;;;1999.90;999.90;;;10.00;99.90;;;;;;4996245;28;20772;-74
2023/04/07 09:43:00;;;;;;;1999.90;999.90;;;9.90;99.90;;;;;;4995678;28;20435;-74
2023/04/07 09:45:31;;;;;;;1999.90;999.90;;;9.70;99.90;;;;;;4995847;28;20423;-74
2023/04/07 09:47:57;;;;;;;1999.90;999.90;;;9.80;99.90;;;;;;4995947;28;20486;-74
2023/04/07 09:50:44;;;;;;;1999.90;999.90;;;9.70;99.90;;;;;;4995564;28;20410;-73
2023/04/07 09:53:10;;;;;;;1999.90;999.90;;;9.70;99.90;;;;;;4994702;28;20460;-73
2023/04/07 09:55:38;;;;;;;1999.90;999.90;;;9.60;99.90;;;;;;4995058;28;20917;-73
2023/04/07 09:58:05;;;;;;;1999.90;999.90;;;9.90;99.90;;;;;;4994823;28;20271;-73
2023/04/07 10:00:31;;;;;;;1999.90;999.90;;;10.00;99.90;;;;;;4994889;28;20767;-73
2023/04/07 10:02:57;;;;;;;1999.90;999.90;;;10.10;99.90;;;;;;4994917;28;20502;-73
2023/04/07 10:05:24;;;;;;;1999.90;999.90;;;10.10;99.90;;;;;;4994200;28;20450;-73
2023/04/07 10:07:50;;;;;;;1999.90;999.90;;;10.10;99.90;;;;;;4994555;28;20427;-73
2023/04/07 10:10:16;;;;;;;1999.90;999.90;;;10.20;99.90;;;;;;4994814;28;20413;-73
2023/04/07 10:12:42;;;;;;;1999.90;999.90;;;10.10;99.90;;;;;;4994646;28;20495;-73
2023/04/07 10:15:10;;;;;;;1999.90;999.90;;;10.10;99.90;;;;;;4994179;28;20166;-73
2023/04/07 10:17:38;;;;;;;1999.90;999.90;;;10.00;99.90;;;;;;4994468;28;20519;-73
2023/04/07 10:20:05;;;;;;;1999.90;999.90;;;9.90;99.90;;;;;;4994591;28;20452;-73
2023/04/07 10:22:32;;;;;;;1999.90;999.90;;;9.90;99.90;;;;;;4994755;28;20422;-73
2023/04/07 10:25:09;;;;;;;1999.90;999.90;;;9.80;99.90;;;;;;4994712;28;20397;-74
2023/04/07 10:27:41;;;;;;;1999.90;999.90;;;9.60;99.90;;;;;;4994613;28;20428;-75
2023/04/07 10:30:13;;;;;;;1999.90;999.90;;;9.70;99.90;;;;;;4991378;28;20430;-72
2023/04/07 10:32:47;;;;;;;1999.90;999.90;;;9.70;99.90;;;;;;4992436;28;20505;-72
2023/04/07 10:35:13;;;;;;;1999.90;999.90;;;9.90;99.90;;;;;;4994883;28;20419;-71
2023/04/07 10:37:39;;;;;;;1999.90;999.90;;;10.00;99.90;;;;;;4993438;28;20457;-71
2023/04/07 10:40:25;;;;;;;1999.90;999.90;;;10.00;99.90;;;;;;4991661;28;20239;-70
2023/04/07 10:42:51;;;;;;;1999.90;999.90;;;10.30;99.90;;;;;;4989236;28;20193;-70
2023/04/07 10:45:45;;;;;;;1999.90;999.90;;;10.40;99.90;;;;;;4989500;28;20414;-70
2023/04/07 10:48:13;;;;;;;1999.90;999.90;;;10.30;99.90;;;;;;4988359;28;20213;-72
2023/04/07 10:50:41;;;;;;;1999.90;999.90;;;10.20;99.90;;;;;;4989203;28;20467;-69
2023/04/07 10:53:12;;;;;;;1999.90;999.90;;;10.00;99.90;;;;;;4986810;28;20815;-71
2023/04/07 10:55:39;;;;;;;1999.90;999.90;;;9.90;99.90;;;;;;4989384;28;20434;-71
2023/04/07 10:58:17;;;;;;;1999.90;999.90;;;9.90;99.90;;;;;;4989587;28;20432;-71
2023/04/07 11:01:05;;;;;;;1999.90;999.90;;;9.90;99.90;;;;;;4991974;28;20424;-71
2023/04/07 11:03:33;;;;;;;1999.90;999.90;;;9.90;99.90;;;;;;4991042;28;20493;-71
2023/04/07 11:06:09;;;;;;;1999.90;999.90;;;10.00;99.90;;;;;;4990339;28;20431;-71
2023/04/07 11:08:42;;;;;;;1999.90;999.90;;;10.10;99.90;;;;;;4988924;28;20974;-72
2023/04/07 11:11:10;;;;;;;1999.90;999.90;;;10.00;99.90;;;;;;4989815;28;21041;-73
2023/04/07 11:13:42;;;;;;;1999.90;999.90;;;10.10;99.90;;;;;;4988175;28;21005;-73
2023/04/07 11:16:08;;;;;;;1999.90;999.90;;;10.10;99.90;;;;;;4989023;28;20467;-73
2023/04/07 11:18:36;;;;;;;1999.90;999.90;;;10.00;99.90;;;;;;4989197;28;20510;-73
2023/04/07 11:21:02;;;;;;;1999.90;999.90;;;10.20;99.90;;;;;;4989827;28;20217;-70
2023/04/07 11:23:28;;;;;;;1999.90;999.90;;;10.10;99.90;;;;;;4989307;28;20431;-72
2023/04/07 11:26:00;;;;;;;1999.90;999.90;;;10.00;99.90;;;;;;4988839;28;20836;-72
2023/04/07 11:28:26;;;;;;;1999.90;999.90;;;10.00;99.90;;;;;;4988786;28;20989;-72
2023/04/07 11:30:53;;;;;;;1999.90;999.90;;;10.10;99.90;;;;;;4990030;28;20506;-73
2023/04/07 11:33:21;;;;;;;1999.90;999.90;;;9.90;99.90;;;;;;4988485;28;20209;-73
2023/04/07 11:35:58;;;;;;;1999.90;999.90;;;10.00;99.90;;;;;;4988661;28;20423;-73
2023/04/07 11:38:26;;;;;;;1999.90;999.90;;;9.80;99.90;;;;;;4988303;28;20425;-72
2023/04/07 11:40:53;;;;;;;1999.90;999.90;;;9.90;99.90;;;;;;4989188;28;20417;-70
2023/04/07 11:43:24;;;;;;;1999.90;999.90;;;10.00;99.90;;;;;;4988692;28;20431;-73
2023/04/07 11:46:10;;;;;;;1999.90;999.90;;;10.10;99.90;;;;;;4987897;28;20458;-73
2023/04/07 11:48:38;;;;;;;1999.90;999.90;;;10.00;99.90;;;;;;4988471;28;20880;-73
2023/04/07 11:51:04;;;;;;;1999.90;999.90;;;10.10;99.90;;;;;;4988777;28;20424;-71
2023/04/07 11:53:36;;;;;;;1999.90;999.90;;;10.00;99.90;;;;;;4987172;28;20547;-73
2023/04/07 11:56:08;;;;;;;1999.90;999.90;;;10.20;99.90;;;;;;4988652;28;21007;-71
2023/04/07 11:58:38;;;;;;;1999.90;999.90;;;10.30;99.90;;;;;;4990092;28;20464;-72
2023/04/07 12:01:08;;;;;;;1999.90;999.90;;;10.20;99.90;;;;;;4987517;28;20420;-72
2023/04/07 12:03:35;;;;;;;1999.90;999.90;;;10.40;99.90;;;;;;4987413;28;20451;-73
2023/04/07 12:06:02;;;;;;;1999.90;999.90;;;10.40;99.90;;;;;;4988994;28;20848;-73
2023/04/07 12:08:39;;;;;;;1999.90;999.90;;;10.70;99.90;;;;;;4990800;28;20432;-72